Time,TemperatureF,DewpointF,PressureIn,WindDirection,WindDirectionDegrees,WindSpeedMPH,WindSpeedGustMPH,Humidity,HourlyPrecipIn,Conditions,Clouds,dailyrainin,SoftwareType,DateUTC
2013-04-29 00:00:00,51.0,50.5,30.09,South,181,0.0,3.0,98,0.00,,SKC,1.23,VWS V14.01,2013-04-29 04:00:00,
2013-04-29 00:01:00,50.9,50.4,30.09,South,181,0.0,0.0,98,0.00,,SKC,0.00,VWS V14.01,2013-04-29 04:01:00,
2013-04-29 00:06:00,51.0,50.5,30.09,South,181,0.0,0.0,98,0.00,,SKC,0.00,VWS V14.01,2013-04-29 04:06:00,
2013-04-29 00:11:00,51.0,50.5,30.09,South,185,2.0,2.0,98,0.00,,SKC,0.00,VWS V14.01,2013-04-29 04:11:00,
2013-04-29 00:16:00,51.0,50.5,30.09,SSW,201,0.0,2.0,98,0.00,,SKC,0.00,VWS V14.01,2013-04-29 04:16:00,
2013-04-29 00:21:00,51.0,50.5,30.09,SSW,201,0.0,2.0,98,0.01,,SKC,0.01,VWS V14.01,2013-04-29 04:21:00,
2013-04-29 00:26:00,51.0,50.5,30.08,SSW,201,0.0,2.0,98,0.01,,SKC,0.01,VWS V14.01,2013-04-29 04:26:00,
2013-04-29 00:30:00,51.0,50.5,30.08,SSW,201,0.0,2.0,98,0.01,,SKC,0.01,VWS V14.01,2013-04-29 04:30:00,
2013-04-29 00:31:00,51.0,50.5,30.08,SSW,201,1.0,1.0,98,0.01,,SKC,0.01,VWS V14.01,2013-04-29 04:31:00,
2013-04-29 00:36:00,51.0,50.5,30.08,SSW,201,0.0,1.0,98,0.01,,SKC,0.01,VWS V14.01,2013-04-29 04:36:00,
2013-04-29 00:41:00,50.9,50.4,30.08,SSW,201,0.0,1.0,98,0.01,,SKC,0.01,VWS V14.01,2013-04-29 04:41:00,
2013-04-29 00:46:00,50.8,50.3,30.07,SSW,201,0.0,1.0,98,0.01,,SKC,0.01,VWS V14.01,2013-04-29 04:46:00,
2013-04-29 00:51:00,50.8,50.3,30.08,SSW,201,0.0,1.0,98,0.01,,SKC,0.01,VWS V14.01,2013-04-29 04:51:00,
2013-04-29 00:56:00,50.7,50.2,30.08,SSW,201,0.0,1.0,98,0.01,,SKC,0.01,VWS V14.01,2013-04-29 04:56:00,
2013-04-29 01:00:00,50.8,50.3,30.08,SSW,201,0.0,1.0,98,0.01,,SKC,0.01,VWS V14.01,2013-04-29 05:00:00,
2013-04-29 01:01:00,50.8,50.3,30.08,SSW,201,0.0,0.0,98,0.01,,SKC,0.01,VWS V14.01,2013-04-29 05:01:00,
2013-04-29 01:06:00,50.8,50.3,30.08,SSW,201,0.0,0.0,98,0.01,,SKC,0.01,VWS V14.01,2013-04-29 05:06:00,
2013-04-29 01:11:00,50.7,50.2,30.08,SSW,201,0.0,0.0,98,0.01,,SKC,0.01,VWS V14.01,2013-04-29 05:11:00,
2013-04-29 01:16:00,50.7,50.2,30.08,SSW,201,0.0,0.0,98,0.01,,SKC,0.01,VWS V14.01,2013-04-29 05:16:00,
2013-04-29 01:21:00,50.7,50.2,30.08,SSW,201,0.0,1.0,98,0.01,,SKC,0.01,VWS V14.01,2013-04-29 05:21:00,
2013-04-29 01:26:00,50.7,50.2,30.07,SSW,201,0.0,1.0,98,0.01,,SKC,0.01,VWS V14.01,2013-04-29 05:26:00,
2013-04-29 01:30:00,50.7,50.2,30.07,SSW,202,0.0,1.0,98,0.01,,SKC,0.01,VWS V14.01,2013-04-29 05:30:00,
2013-04-29 01:31:00,50.7,50.2,30.07,SSW,201,0.0,0.0,98,0.00,,SKC,0.01,VWS V14.01,2013-04-29 05:31:00,
2013-04-29 01:36:00,50.6,50.1,30.07,SSW,201,0.0,0.0,98,0.00,,SKC,0.01,VWS V14.01,2013-04-29 05:36:00,
2013-04-29 01:41:00,50.6,50.1,30.07,SSW,201,0.0,0.0,98,0.00,,SKC,0.01,VWS V14.01,2013-04-29 05:41:00,
2013-04-29 01:46:00,50.6,50.1,30.07,SSW,201,0.0,0.0,98,0.00,,SKC,0.01,VWS V14.01,2013-04-29 05:46:00,
2013-04-29 01:51:00,50.5,50.0,30.08,SSW,201,1.0,1.0,98,0.00,,SKC,0.01,VWS V14.01,2013-04-29 05:51:00,
2013-04-29 01:56:00,50.6,50.1,30.08,SSW,201,0.0,1.0,98,0.00,,SKC,0.01,VWS V14.01,2013-04-29 05:56:00,
2013-04-29 02:00:00,50.6,50.1,30.08,WSW,240,0.0,1.0,98,0.00,,SKC,0.01,VWS V14.01,2013-04-29 06:00:00,
2013-04-29 02:01:00,50.6,50.1,30.08,WSW,241,0.0,0.0,98,0.00,,SKC,0.01,VWS V14.01,2013-04-29 06:01:00,
2013-04-29 02:06:00,50.6,50.1,30.07,WSW,240,0.0,0.0,98,0.00,,SKC,0.01,VWS V14.01,2013-04-29 06:06:00,
2013-04-29 02:11:00,50.6,50.1,30.07,WSW,240,0.0,1.0,98,0.00,,SKC,0.01,VWS V14.01,2013-04-29 06:11:00,
2013-04-29 02:16:00,50.6,50.1,30.07,WSW,240,0.0,1.0,98,0.00,,SKC,0.01,VWS V14.01,2013-04-29 06:16:00,
2013-04-29 02:21:00,50.6,50.1,30.07,WSW,240,1.0,1.0,98,0.00,,SKC,0.01,VWS V14.01,2013-04-29 06:21:00,
2013-04-29 02:26:00,50.6,50.1,30.07,WSW,240,0.0,1.0,98,0.00,,SKC,0.01,VWS V14.01,2013-04-29 06:26:00,
2013-04-29 02:30:00,50.6,50.1,30.06,WSW,240,0.0,1.0,98,0.00,,SKC,0.01,VWS V14.01,2013-04-29 06:30:00,
2013-04-29 02:31:00,50.6,50.1,30.06,WSW,240,0.0,0.0,98,0.00,,SKC,0.01,VWS V14.01,2013-04-29 06:31:00,
2013-04-29 02:36:00,50.6,50.1,30.06,WSW,240,0.0,0.0,98,0.00,,SKC,0.01,VWS V14.01,2013-04-29 06:36:00,
2013-04-29 02:41:00,50.6,50.1,30.05,WSW,240,1.0,1.0,98,0.00,,SKC,0.01,VWS V14.01,2013-04-29 06:41:00,
2013-04-29 02:46:00,50.6,50.1,30.05,WSW,240,0.0,1.0,98,0.00,,SKC,0.01,VWS V14.01,2013-04-29 06:46:00,
2013-04-29 02:51:00,50.6,50.1,30.05,WSW,246,1.0,2.0,98,0.00,,SKC,0.01,VWS V14.01,2013-04-29 06:51:00,
2013-04-29 02:56:00,50.6,50.1,30.05,WSW,248,1.0,2.0,98,0.00,,SKC,0.01,VWS V14.01,2013-04-29 06:56:00,
2013-04-29 03:00:00,50.6,50.1,30.05,WSW,246,0.0,2.0,98,0.00,,SKC,0.01,VWS V14.01,2013-04-29 07:00:00,
2013-04-29 03:01:00,50.6,50.1,30.05,WSW,246,0.0,0.0,98,0.00,,SKC,0.01,VWS V14.01,2013-04-29 07:01:00,
2013-04-29 03:06:00,50.6,50.1,30.06,WSW,246,0.0,1.0,98,0.00,,SKC,0.01,VWS V14.01,2013-04-29 07:06:00,
2013-04-29 03:11:00,50.6,50.1,30.06,WSW,245,1.0,1.0,98,0.00,,SKC,0.01,VWS V14.01,2013-04-29 07:11:00,
2013-04-29 03:16:00,50.7,50.2,30.05,WSW,246,0.0,1.0,98,0.00,,SKC,0.01,VWS V14.01,2013-04-29 07:16:00,
2013-04-29 03:21:00,50.6,50.1,30.05,WSW,245,0.0,1.0,98,0.00,,SKC,0.01,VWS V14.01,2013-04-29 07:21:00,
2013-04-29 03:26:00,50.6,50.1,30.05,WSW,246,0.0,1.0,98,0.00,,SKC,0.01,VWS V14.01,2013-04-29 07:26:00,
2013-04-29 03:30:00,50.6,50.1,30.05,WSW,246,0.0,1.0,98,0.00,,SKC,0.01,VWS V14.01,2013-04-29 07:30:00,
2013-04-29 03:31:00,50.6,50.1,30.05,WSW,246,0.0,0.0,98,0.00,,SKC,0.01,VWS V14.01,2013-04-29 07:31:00,
2013-04-29 03:36:00,50.6,50.1,30.05,WSW,246,0.0,0.0,98,0.00,,SKC,0.01,VWS V14.01,2013-04-29 07:36:00,
2013-04-29 03:41:00,50.7,50.2,30.05,WSW,246,0.0,0.0,98,0.00,,SKC,0.01,VWS V14.01,2013-04-29 07:41:00,
2013-04-29 03:46:00,50.7,50.2,30.05,WSW,246,0.0,1.0,98,0.00,,SKC,0.01,VWS V14.01,2013-04-29 07:46:00,
2013-04-29 03:51:00,50.7,50.2,30.05,WSW,246,0.0,1.0,98,0.00,,SKC,0.01,VWS V14.01,2013-04-29 07:51:00,
2013-04-29 03:56:00,50.7,50.2,30.06,WSW,246,1.0,1.0,98,0.00,,SKC,0.01,VWS V14.01,2013-04-29 07:56:00,
2013-04-29 04:00:00,50.8,50.5,30.06,WSW,246,0.0,1.0,99,0.00,,SKC,0.01,VWS V14.01,2013-04-29 08:00:00,
2013-04-29 04:01:00,50.7,50.4,30.06,WSW,246,0.0,0.0,99,0.00,,SKC,0.01,VWS V14.01,2013-04-29 08:01:00,
2013-04-29 04:06:00,50.8,50.5,30.06,SW,228,0.0,1.0,99,0.00,,SKC,0.01,VWS V14.01,2013-04-29 08:06:00,
2013-04-29 04:11:00,50.8,50.5,30.06,SW,228,0.0,1.0,99,0.00,,SKC,0.01,VWS V14.01,2013-04-29 08:11:00,
2013-04-29 04:16:00,50.8,50.5,30.05,SW,228,0.0,1.0,99,0.00,,SKC,0.01,VWS V14.01,2013-04-29 08:16:00,
2013-04-29 04:21:00,50.7,50.2,30.05,SW,228,1.0,1.0,98,0.00,,SKC,0.01,VWS V14.01,2013-04-29 08:21:00,
2013-04-29 04:26:00,50.7,50.2,30.05,SW,228,0.0,1.0,98,0.00,,SKC,0.01,VWS V14.01,2013-04-29 08:26:00,
2013-04-29 04:30:00,50.5,50.0,30.05,SW,228,0.0,1.0,98,0.00,,SKC,0.01,VWS V14.01,2013-04-29 08:30:00,
2013-04-29 04:31:00,50.5,50.0,30.04,SW,228,0.0,0.0,98,0.00,,SKC,0.01,VWS V14.01,2013-04-29 08:31:00,
2013-04-29 04:36:00,50.5,50.0,30.04,SW,228,0.0,2.0,98,0.00,,SKC,0.01,VWS V14.01,2013-04-29 08:36:00,
2013-04-29 04:41:00,50.3,49.8,30.04,SW,228,1.0,2.0,98,0.00,,SKC,0.01,VWS V14.01,2013-04-29 08:41:00,
2013-04-29 04:45:00,50.3,49.8,30.04,SW,229,1.0,2.0,98,0.00,,SKC,0.01,VWS V14.01,2013-04-29 08:45:00,
2013-04-29 04:50:00,50.2,49.7,30.04,SW,229,0.0,2.0,98,0.00,,SKC,0.01,VWS V14.01,2013-04-29 08:50:00,
2013-04-29 04:55:00,50.1,49.6,30.03,SW,228,0.0,2.0,98,0.00,,SKC,0.01,VWS V14.01,2013-04-29 08:55:00,
2013-04-29 05:00:00,50.1,49.8,30.03,SW,217,2.0,2.0,99,0.00,,SKC,0.01,VWS V14.01,2013-04-29 09:00:00,
2013-04-29 05:05:00,49.8,49.3,30.03,SSW,210,0.0,2.0,98,0.00,,SKC,0.01,VWS V14.01,2013-04-29 09:05:00,
2013-04-29 05:10:00,49.6,49.1,30.04,NNW,334,1.0,4.0,98,0.00,,SKC,0.01,VWS V14.01,2013-04-29 09:10:00,
2013-04-29 05:15:00,49.7,49.2,30.04,NNW,336,0.0,4.0,98,0.00,,SKC,0.01,VWS V14.01,2013-04-29 09:15:00,
2013-04-29 05:20:00,49.7,49.4,30.03,NNW,336,0.0,4.0,99,0.00,,SKC,0.01,VWS V14.01,2013-04-29 09:20:00,
2013-04-29 05:25:00,49.7,49.4,30.03,NNW,336,0.0,4.0,99,0.00,,SKC,0.01,VWS V14.01,2013-04-29 09:25:00,
2013-04-29 05:30:00,49.7,49.4,30.04,NNW,335,2.0,2.0,99,0.00,,SKC,0.01,VWS V14.01,2013-04-29 09:30:00,
2013-04-29 05:35:00,49.7,49.4,30.03,NW,309,2.0,4.0,99,0.00,,SKC,0.01,VWS V14.01,2013-04-29 09:35:00,
2013-04-29 05:40:00,49.7,49.4,30.03,NNE,15,0.0,4.0,99,0.00,,SKC,0.01,VWS V14.01,2013-04-29 09:40:00,
2013-04-29 05:45:00,49.7,49.4,30.03,NNE,15,1.0,4.0,99,0.00,,SKC,0.01,VWS V14.01,2013-04-29 09:45:00,
2013-04-29 05:50:00,49.7,49.4,30.04,North,358,1.0,4.0,99,0.00,,SKC,0.01,VWS V14.01,2013-04-29 09:50:00,
2013-04-29 05:55:00,49.8,49.5,30.04,NNW,341,0.0,4.0,99,0.00,,SKC,0.01,VWS V14.01,2013-04-29 09:55:00,
2013-04-29 06:00:00,49.8,49.5,30.04,NNW,342,0.0,0.0,99,0.00,,SKC,0.01,VWS V14.01,2013-04-29 10:00:00,
2013-04-29 06:05:00,49.9,49.6,30.05,NNW,341,0.0,0.0,99,0.00,,SKC,0.01,VWS V14.01,2013-04-29 10:05:00,
2013-04-29 06:10:00,49.8,49.5,30.05,NNW,342,0.0,0.0,99,0.00,,SKC,0.01,VWS V14.01,2013-04-29 10:10:00,
2013-04-29 06:15:00,49.9,49.6,30.05,NNW,341,0.0,0.0,99,0.00,,SKC,0.01,VWS V14.01,2013-04-29 10:15:00,
2013-04-29 06:20:00,49.9,49.6,30.06,NNW,342,0.0,0.0,99,0.00,,SKC,0.01,VWS V14.01,2013-04-29 10:20:00,
2013-04-29 06:26:00,49.9,49.6,30.06,NNW,341,0.0,0.0,99,0.00,,SKC,0.01,VWS V14.01,2013-04-29 10:26:00,
2013-04-29 06:30:00,50.0,49.7,30.06,NNW,342,0.0,0.0,99,0.00,,SKC,0.01,VWS V14.01,2013-04-29 10:30:00,
2013-04-29 06:31:00,50.0,49.7,30.06,NNW,342,0.0,0.0,99,0.00,,SKC,0.01,VWS V14.01,2013-04-29 10:31:00,
2013-04-29 06:36:00,50.0,49.7,30.06,NNW,341,0.0,0.0,99,0.00,,SKC,0.01,VWS V14.01,2013-04-29 10:36:00,
2013-04-29 06:41:00,49.9,49.6,30.06,NNW,341,0.0,1.0,99,0.00,,SKC,0.01,VWS V14.01,2013-04-29 10:41:00,
2013-04-29 06:46:00,49.8,49.5,30.06,NNW,342,1.0,1.0,99,0.00,,SKC,0.01,VWS V14.01,2013-04-29 10:46:00,
2013-04-29 06:51:00,49.8,49.5,30.06,ENE,57,1.0,2.0,99,0.00,,SKC,0.01,VWS V14.01,2013-04-29 10:51:00,
2013-04-29 06:56:00,49.7,49.4,30.07,ENE,57,0.0,2.0,99,0.00,,SKC,0.01,VWS V14.01,2013-04-29 10:56:00,
2013-04-29 07:00:00,49.5,49.2,30.07,NE,56,0.0,2.0,99,0.00,,SKC,0.01,VWS V14.01,2013-04-29 11:00:00,
2013-04-29 07:01:00,49.5,49.2,30.07,ENE,57,0.0,0.0,99,0.00,,SKC,0.01,VWS V14.01,2013-04-29 11:01:00,
2013-04-29 07:06:00,49.5,49.2,30.07,NE,56,0.0,1.0,99,0.00,,SKC,0.01,VWS V14.01,2013-04-29 11:06:00,
2013-04-29 07:11:00,49.5,49.2,30.07,ENE,57,1.0,2.0,99,0.00,,SKC,0.01,VWS V14.01,2013-04-29 11:11:00,
2013-04-29 07:16:00,49.6,49.3,30.07,ENE,57,0.0,2.0,99,0.00,,SKC,0.01,VWS V14.01,2013-04-29 11:16:00,
2013-04-29 07:21:00,49.6,49.3,30.07,ENE,57,1.0,2.0,99,0.00,,SKC,0.01,VWS V14.01,2013-04-29 11:21:00,
2013-04-29 07:26:00,49.6,49.3,30.07,NE,56,0.0,2.0,99,0.00,,SKC,0.01,VWS V14.01,2013-04-29 11:26:00,
2013-04-29 07:30:00,49.7,49.4,30.07,ENE,57,0.0,2.0,99,0.00,,SKC,0.01,VWS V14.01,2013-04-29 11:30:00,
2013-04-29 07:31:00,49.7,49.4,30.07,ENE,57,0.0,0.0,99,0.00,,SKC,0.01,VWS V14.01,2013-04-29 11:31:00,
2013-04-29 07:36:00,49.8,49.5,30.07,NE,56,0.0,0.0,99,0.00,,SKC,0.01,VWS V14.01,2013-04-29 11:36:00,
2013-04-29 07:41:00,49.9,49.6,30.07,NE,56,0.0,1.0,99,0.00,,SKC,0.01,VWS V14.01,2013-04-29 11:41:00,
2013-04-29 07:46:00,50.1,49.8,30.07,ENE,76,1.0,1.0,99,0.00,,SKC,0.01,VWS V14.01,2013-04-29 11:46:00,
2013-04-29 07:51:00,50.1,49.8,30.07,ENE,75,2.0,2.0,99,0.00,,SKC,0.01,VWS V14.01,2013-04-29 11:51:00,
2013-04-29 07:56:00,50.1,49.8,30.08,ENE,74,1.0,3.0,99,0.00,,SKC,0.01,VWS V14.01,2013-04-29 11:56:00,
2013-04-29 08:00:00,50.3,50.0,30.08,NE,39,0.0,3.0,99,0.00,,SKC,0.01,VWS V14.01,2013-04-29 12:00:00,
2013-04-29 08:01:00,50.3,50.0,30.08,NE,39,0.0,1.0,99,0.00,,SKC,0.01,VWS V14.01,2013-04-29 12:01:00,
2013-04-29 08:06:00,50.3,50.0,30.08,NE,36,2.0,2.0,99,0.00,,SKC,0.01,VWS V14.01,2013-04-29 12:06:00,
2013-04-29 08:11:00,50.4,50.1,30.08,NE,41,1.0,2.0,99,0.00,,SKC,0.01,VWS V14.01,2013-04-29 12:11:00,
2013-04-29 08:16:00,50.5,50.2,30.08,ENE,75,2.0,3.0,99,0.00,,SKC,0.01,VWS V14.01,2013-04-29 12:16:00,
2013-04-29 08:21:00,50.6,50.3,30.08,NE,39,0.0,3.0,99,0.00,,SKC,0.01,VWS V14.01,2013-04-29 12:21:00,
2013-04-29 08:26:00,50.6,50.3,30.08,ENE,60,2.0,4.0,99,0.00,,SKC,0.01,VWS V14.01,2013-04-29 12:26:00,
2013-04-29 08:30:00,50.5,50.2,30.08,NNW,347,3.0,4.0,99,0.00,,SKC,0.01,VWS V14.01,2013-04-29 12:30:00,
2013-04-29 08:31:00,50.5,50.2,30.08,NNW,347,3.0,3.0,99,0.00,,SKC,0.01,VWS V14.01,2013-04-29 12:31:00,
2013-04-29 08:36:00,50.5,50.2,30.08,ENE,60,2.0,3.0,99,0.00,,SKC,0.01,VWS V14.01,2013-04-29 12:36:00,
2013-04-29 08:41:00,50.5,50.2,30.08,NE,56,1.0,3.0,99,0.00,,SKC,0.01,VWS V14.01,2013-04-29 12:41:00,
2013-04-29 08:46:00,50.6,50.3,30.08,NNW,335,1.0,3.0,99,0.00,,SKC,0.01,VWS V14.01,2013-04-29 12:46:00,
2013-04-29 08:51:00,50.7,50.4,30.08,NNW,333,3.0,3.0,99,0.00,,SKC,0.01,VWS V14.01,2013-04-29 12:51:00,
2013-04-29 08:56:00,50.7,50.4,30.08,ENE,62,3.0,4.0,99,0.00,,SKC,0.01,VWS V14.01,2013-04-29 12:56:00,
2013-04-29 09:00:00,50.8,50.5,30.08,NE,46,4.0,6.0,99,0.00,,SKC,0.01,VWS V14.01,2013-04-29 13:00:00,
2013-04-29 09:01:00,50.8,50.5,30.08,NNE,17,2.0,4.0,99,0.00,,SKC,0.01,VWS V14.01,2013-04-29 13:01:00,
2013-04-29 09:06:00,50.7,50.4,30.08,NE,52,2.0,4.0,99,0.00,,SKC,0.01,VWS V14.01,2013-04-29 13:06:00,
2013-04-29 09:11:00,50.8,50.5,30.08,North,353,2.0,4.0,99,0.00,,SKC,0.01,VWS V14.01,2013-04-29 13:11:00,
2013-04-29 09:16:00,50.8,50.3,30.08,NW,309,0.0,4.0,98,0.00,,SKC,0.01,VWS V14.01,2013-04-29 13:16:00,
2013-04-29 09:21:00,51.2,50.9,30.08,NNE,25,2.0,4.0,99,0.00,,SKC,0.01,VWS V14.01,2013-04-29 13:21:00,
2013-04-29 09:26:00,51.5,51.2,30.08,NNE,19,2.0,4.0,99,0.00,,SKC,0.01,VWS V14.01,2013-04-29 13:26:00,
2013-04-29 09:30:00,51.5,51.2,30.08,ENE,75,0.0,4.0,99,0.00,,SKC,0.01,VWS V14.01,2013-04-29 13:30:00,
2013-04-29 09:31:00,51.5,51.2,30.08,ENE,75,0.0,0.0,99,0.00,,SKC,0.01,VWS V14.01,2013-04-29 13:31:00,
2013-04-29 09:36:00,52.1,51.8,30.08,ENE,75,0.0,1.0,99,0.00,,SKC,0.01,VWS V14.01,2013-04-29 13:36:00,
2013-04-29 09:41:00,52.7,52.4,30.07,ENE,75,0.0,2.0,99,0.00,,SKC,0.01,VWS V14.01,2013-04-29 13:41:00,
2013-04-29 09:46:00,53.0,52.7,30.07,NNE,18,0.0,2.0,99,0.00,,SKC,0.01,VWS V14.01,2013-04-29 13:46:00,
2013-04-29 09:51:00,53.7,53.4,30.07,NNE,23,0.0,2.0,99,0.00,,SKC,0.01,VWS V14.01,2013-04-29 13:51:00,
2013-04-29 09:56:00,54.2,53.9,30.07,NW,309,1.0,2.0,99,0.00,,SKC,0.01,VWS V14.01,2013-04-29 13:56:00,
2013-04-29 10:00:00,54.2,53.7,30.07,NE,51,2.0,4.0,98,0.00,,SKC,0.01,VWS V14.01,2013-04-29 14:00:00,
2013-04-29 10:01:00,54.2,53.7,30.07,NE,48,3.0,3.0,98,0.00,,SKC,0.01,VWS V14.01,2013-04-29 14:01:00,
2013-04-29 10:06:00,54.2,53.4,30.07,WSW,246,1.0,3.0,97,0.00,,SKC,0.01,VWS V14.01,2013-04-29 14:06:00,
2013-04-29 10:11:00,54.6,53.8,30.07,NNW,338,4.0,4.0,97,0.00,,SKC,0.01,VWS V14.01,2013-04-29 14:11:00,
2013-04-29 10:16:00,54.6,53.5,30.07,North,356,2.0,4.0,96,0.00,,SKC,0.01,VWS V14.01,2013-04-29 14:16:00,
2013-04-29 10:21:00,54.7,53.6,30.07,NNE,22,3.0,4.0,96,0.00,,SKC,0.01,VWS V14.01,2013-04-29 14:21:00,
2013-04-29 10:26:00,54.9,53.5,30.07,NNE,16,1.0,4.0,95,0.00,,SKC,0.01,VWS V14.01,2013-04-29 14:26:00,
2013-04-29 10:30:00,55.2,53.8,30.07,NNW,346,1.0,4.0,95,0.00,,SKC,0.01,VWS V14.01,2013-04-29 14:30:00,
2013-04-29 10:31:00,55.2,53.8,30.07,NNW,346,0.0,1.0,95,0.00,,SKC,0.01,VWS V14.01,2013-04-29 14:31:00,
2013-04-29 10:36:00,56.0,54.3,30.07,West,262,0.0,3.0,94,0.00,,SKC,0.01,VWS V14.01,2013-04-29 14:36:00,
2013-04-29 10:41:00,56.9,54.6,30.07,SSW,208,3.0,4.0,92,0.00,,SKC,0.01,VWS V14.01,2013-04-29 14:41:00,
2013-04-29 10:46:00,57.8,55.8,30.07,SW,226,1.0,4.0,93,0.00,,SKC,0.01,VWS V14.01,2013-04-29 14:46:00,
2013-04-29 10:51:00,58.6,55.1,30.07,SSW,201,2.0,4.0,88,0.00,,SKC,0.01,VWS V14.01,2013-04-29 14:51:00,
2013-04-29 10:56:00,59.1,55.2,30.07,WSW,240,1.0,4.0,87,0.00,,SKC,0.01,VWS V14.01,2013-04-29 14:56:00,
2013-04-29 11:00:00,59.1,54.9,30.07,North,4,1.0,4.0,86,0.00,,SKC,0.01,VWS V14.01,2013-04-29 15:00:00,
2013-04-29 11:01:00,59.2,55.0,30.07,North,5,0.0,1.0,86,0.00,,SKC,0.01,VWS V14.01,2013-04-29 15:01:00,
2013-04-29 11:06:00,59.4,54.9,30.07,North,8,1.0,4.0,85,0.00,,SKC,0.01,VWS V14.01,2013-04-29 15:06:00,
2013-04-29 11:11:00,59.7,55.2,30.07,ENE,62,1.0,4.0,85,0.00,,SKC,0.01,VWS V14.01,2013-04-29 15:11:00,
2013-04-29 11:16:00,60.2,55.7,30.07,NW,322,2.0,4.0,85,0.00,,SKC,0.01,VWS V14.01,2013-04-29 15:16:00,
2013-04-29 11:21:00,60.6,55.1,30.07,WSW,241,2.0,4.0,82,0.00,,SKC,0.01,VWS V14.01,2013-04-29 15:21:00,
2013-04-29 11:26:00,61.3,55.8,30.06,North,360,3.0,4.0,82,0.00,,SKC,0.01,VWS V14.01,2013-04-29 15:26:00,
2013-04-29 11:30:00,61.5,55.6,30.06,NNW,334,1.0,4.0,81,0.00,,SKC,0.01,VWS V14.01,2013-04-29 15:30:00,
2013-04-29 11:31:00,61.5,56.0,30.06,NW,316,1.0,2.0,82,0.00,,SKC,0.01,VWS V14.01,2013-04-29 15:31:00,
2013-04-29 11:36:00,61.8,54.9,30.06,North,358,1.0,5.0,78,0.00,,SKC,0.01,VWS V14.01,2013-04-29 15:36:00,
2013-04-29 11:41:00,62.2,55.6,30.06,NNW,327,2.0,5.0,79,0.00,,SKC,0.01,VWS V14.01,2013-04-29 15:41:00,
2013-04-29 11:46:00,62.5,54.8,30.06,NW,321,4.0,6.0,76,0.00,,SKC,0.01,VWS V14.01,2013-04-29 15:46:00,
2013-04-29 11:51:00,62.7,55.8,30.06,NNW,348,2.0,6.0,78,0.00,,SKC,0.01,VWS V14.01,2013-04-29 15:51:00,
2013-04-29 11:56:00,63.0,53.1,30.06,ENE,65,0.0,6.0,70,0.00,,SKC,0.01,VWS V14.01,2013-04-29 15:56:00,
2013-04-29 12:00:00,63.5,52.8,30.06,NNE,30,2.0,6.0,68,0.00,,SKC,0.01,VWS V14.01,2013-04-29 16:00:00,
2013-04-29 12:01:00,63.5,52.8,30.06,NNE,30,2.0,2.0,68,0.00,,SKC,0.01,VWS V14.01,2013-04-29 16:01:00,
2013-04-29 12:06:00,63.8,53.0,30.06,NE,53,3.0,7.0,68,0.00,,SKC,0.01,VWS V14.01,2013-04-29 16:06:00,
2013-04-29 12:30:00,65.8,52.4,30.05,NE,45,3.0,9.0,62,0.00,,SKC,0.01,VWS V14.01,2013-04-29 16:30:00,
2013-04-29 13:00:00,66.0,51.3,30.03,NE,45,2.0,7.0,59,0.00,,SKC,0.01,VWS V14.01,2013-04-29 17:00:00,
2013-04-29 13:17:00,65.8,52.4,30.05,NE,45,3.0,9.0,62,0.00,,SKC,0.01,VWS V14.01,2013-04-29 17:17:00,
2013-04-29 13:22:00,69.1,50.8,30.03,SSW,205,5.0,6.0,52,0.00,,SKC,0.01,VWS V14.01,2013-04-29 17:22:00,
2013-04-29 13:30:00,69.7,50.2,30.02,SW,235,1.0,2.0,50,0.00,,SKC,0.01,VWS V14.01,2013-04-29 17:30:00,
2013-04-29 13:35:00,69.3,50.4,30.02,NNW,329,2.0,4.0,51,0.00,,SKC,0.01,VWS V14.01,2013-04-29 17:35:00,
2013-04-29 13:40:00,68.6,48.7,30.02,NW,305,1.0,4.0,49,0.00,,SKC,0.01,VWS V14.01,2013-04-29 17:40:00,
2013-04-29 13:45:00,68.4,49.6,30.02,NE,37,5.0,6.0,51,0.00,,SKC,0.01,VWS V14.01,2013-04-29 17:45:00,
2013-04-29 13:50:00,68.6,51.8,30.02,NNE,13,3.0,8.0,55,0.00,,SKC,0.01,VWS V14.01,2013-04-29 17:50:00,
2013-04-29 13:55:00,69.8,52.4,30.02,NNW,345,3.0,8.0,54,0.00,,SKC,0.01,VWS V14.01,2013-04-29 17:55:00,
2013-04-29 14:00:00,69.7,50.8,30.01,NNW,330,2.0,2.0,51,0.00,,SKC,0.01,VWS V14.01,2013-04-29 18:00:00,
2013-04-29 14:05:00,69.2,50.3,30.01,NNE,32,2.0,6.0,51,0.00,,SKC,0.01,VWS V14.01,2013-04-29 18:05:00,
2013-04-29 14:10:00,69.1,51.3,30.01,ENE,67,3.0,6.0,53,0.00,,SKC,0.01,VWS V14.01,2013-04-29 18:10:00,
2013-04-29 14:15:00,68.7,51.9,30.01,NNE,32,2.0,7.0,55,0.00,,SKC,0.01,VWS V14.01,2013-04-29 18:15:00,
2013-04-29 14:20:00,68.4,50.1,30.01,NE,49,4.0,9.0,52,0.00,,SKC,0.01,VWS V14.01,2013-04-29 18:20:00,
2013-04-29 14:25:00,68.5,50.2,30.01,NNW,341,3.0,9.0,52,0.00,,SKC,0.01,VWS V14.01,2013-04-29 18:25:00,
2013-04-29 14:30:00,68.6,49.8,30.00,NNW,346,2.0,2.0,51,0.00,,SKC,0.01,VWS V14.01,2013-04-29 18:30:00,
2013-04-29 14:35:00,68.8,50.5,30.00,North,3,2.0,2.0,52,0.00,,SKC,0.01,VWS V14.01,2013-04-29 18:35:00,
2013-04-29 14:40:00,68.7,49.9,30.00,North,6,3.0,6.0,51,0.00,,SKC,0.01,VWS V14.01,2013-04-29 18:40:00,
2013-04-29 14:45:00,68.7,50.9,30.00,NNW,342,0.0,6.0,53,0.00,,SKC,0.01,VWS V14.01,2013-04-29 18:45:00,
2013-04-29 14:50:00,69.3,51.5,30.00,NE,49,3.0,6.0,53,0.00,,SKC,0.01,VWS V14.01,2013-04-29 18:50:00,
2013-04-29 14:55:00,69.3,51.5,30.00,North,349,7.0,9.0,53,0.00,,SKC,0.01,VWS V14.01,2013-04-29 18:55:00,
2013-04-29 15:00:00,69.3,50.9,29.99,NE,53,6.0,6.0,52,0.00,,SKC,0.01,VWS V14.01,2013-04-29 19:00:00,
2013-04-29 15:05:00,70.0,52.6,29.99,North,360,6.0,9.0,54,0.00,,SKC,0.01,VWS V14.01,2013-04-29 19:05:00,
2013-04-29 15:10:00,69.7,51.3,29.99,NNW,348,3.0,9.0,52,0.00,,SKC,0.01,VWS V14.01,2013-04-29 19:10:00,
2013-04-29 15:15:00,69.6,52.7,29.99,NNE,29,2.0,11.0,55,0.00,,SKC,0.01,VWS V14.01,2013-04-29 19:15:00,
2013-04-29 15:20:00,69.4,52.5,29.99,NNE,28,2.0,11.0,55,0.00,,SKC,0.01,VWS V14.01,2013-04-29 19:20:00,
2013-04-29 15:25:00,69.3,51.5,29.98,NNE,16,3.0,11.0,53,0.00,,SKC,0.01,VWS V14.01,2013-04-29 19:25:00,
2013-04-29 15:30:00,69.5,51.6,29.98,North,350,6.0,7.0,53,0.00,,SKC,0.01,VWS V14.01,2013-04-29 19:30:00,
2013-04-29 15:35:00,69.9,51.5,29.97,NW,317,4.0,8.0,52,0.00,,SKC,0.01,VWS V14.01,2013-04-29 19:35:00,
2013-04-29 15:40:00,70.3,52.4,29.97,ENE,61,2.0,8.0,53,0.00,,SKC,0.01,VWS V14.01,2013-04-29 19:40:00,
2013-04-29 15:45:00,71.0,53.5,29.97,NE,44,4.0,8.0,54,0.00,,SKC,0.01,VWS V14.01,2013-04-29 19:45:00,
2013-04-29 15:50:00,70.7,50.6,29.97,North,351,5.0,9.0,49,0.00,,SKC,0.01,VWS V14.01,2013-04-29 19:50:00,
2013-04-29 15:55:00,70.3,50.3,29.97,NNE,23,3.0,9.0,49,0.00,,SKC,0.01,VWS V14.01,2013-04-29 19:55:00,
2013-04-29 16:00:00,70.6,50.5,29.96,NNW,338,2.0,9.0,49,0.00,,SKC,0.01,VWS V14.01,2013-04-29 20:00:00,
2013-04-29 16:05:00,70.7,53.3,29.96,North,6,6.0,8.0,54,0.00,,SKC,0.01,VWS V14.01,2013-04-29 20:05:00,
2013-04-29 16:10:00,70.4,52.5,29.96,NNE,30,5.0,8.0,53,0.00,,SKC,0.01,VWS V14.01,2013-04-29 20:10:00,
2013-04-29 16:15:00,70.5,53.1,29.96,NNW,341,5.0,9.0,54,0.00,,SKC,0.01,VWS V14.01,2013-04-29 20:15:00,
2013-04-29 16:20:00,70.8,52.8,29.95,East,98,4.0,9.0,53,0.00,,SKC,0.01,VWS V14.01,2013-04-29 20:20:00,
2013-04-29 16:25:00,71.1,53.1,29.95,NNE,13,3.0,9.0,53,0.00,,SKC,0.01,VWS V14.01,2013-04-29 20:25:00,
2013-04-29 16:30:00,70.9,52.4,29.95,West,259,3.0,9.0,52,0.00,,SKC,0.01,VWS V14.01,2013-04-29 20:30:00,
2013-04-29 16:35:00,70.9,53.4,29.95,ENE,61,1.0,9.0,54,0.00,,SKC,0.01,VWS V14.01,2013-04-29 20:35:00,
2013-04-29 16:40:00,71.1,52.6,29.95,NNW,340,5.0,9.0,52,0.00,,SKC,0.01,VWS V14.01,2013-04-29 20:40:00,
2013-04-29 16:45:00,71.2,52.7,29.94,NNW,335,1.0,9.0,52,0.00,,SKC,0.01,VWS V14.01,2013-04-29 20:45:00,
2013-04-29 16:50:00,71.5,51.4,29.94,WNW,290,3.0,9.0,49,0.00,,SKC,0.01,VWS V14.01,2013-04-29 20:50:00,
2013-04-29 16:55:00,71.3,51.7,29.94,NNW,338,5.0,9.0,50,0.00,,SKC,0.01,VWS V14.01,2013-04-29 20:55:00,
2013-04-29 17:00:00,71.3,51.7,29.94,ENE,65,2.0,9.0,50,0.00,,SKC,0.01,VWS V14.01,2013-04-29 21:00:00,
2013-04-29 17:05:00,71.9,52.8,29.94,NNE,27,5.0,5.0,51,0.00,,SKC,0.01,VWS V14.01,2013-04-29 21:05:00,
2013-04-29 17:10:00,71.9,51.7,29.94,ENE,76,4.0,7.0,49,0.00,,SKC,0.01,VWS V14.01,2013-04-29 21:10:00,
2013-04-29 17:15:00,71.8,52.7,29.94,West,265,3.0,7.0,51,0.00,,SKC,0.01,VWS V14.01,2013-04-29 21:15:00,
2013-04-29 17:20:00,71.8,52.2,29.94,NW,316,3.0,9.0,50,0.00,,SKC,0.01,VWS V14.01,2013-04-29 21:20:00,
2013-04-29 17:25:00,71.8,52.2,29.94,North,349,4.0,9.0,50,0.00,,SKC,0.01,VWS V14.01,2013-04-29 21:25:00,
2013-04-29 17:30:00,71.6,53.1,29.94,NW,319,3.0,9.0,52,0.00,,SKC,0.01,VWS V14.01,2013-04-29 21:30:00,
2013-04-29 17:35:00,71.7,53.2,29.94,NNW,329,3.0,8.0,52,0.00,,SKC,0.01,VWS V14.01,2013-04-29 21:35:00,
2013-04-29 17:40:00,71.2,52.2,29.94,North,353,5.0,9.0,51,0.00,,SKC,0.01,VWS V14.01,2013-04-29 21:40:00,
2013-04-29 17:45:00,71.1,52.1,29.94,NNW,332,4.0,9.0,51,0.00,,SKC,0.01,VWS V14.01,2013-04-29 21:45:00,
2013-04-29 17:50:00,70.9,52.9,29.94,NNW,338,2.0,11.0,53,0.00,,SKC,0.01,VWS V14.01,2013-04-29 21:50:00,
2013-04-29 17:55:00,70.9,54.0,29.94,NNW,347,1.0,11.0,55,0.00,,SKC,0.01,VWS V14.01,2013-04-29 21:55:00,
2013-04-29 18:00:00,71.1,53.1,29.94,North,10,5.0,11.0,53,0.00,,SKC,0.01,VWS V14.01,2013-04-29 22:00:00,
2013-04-29 18:05:00,71.2,53.7,29.94,North,349,6.0,7.0,54,0.00,,SKC,0.01,VWS V14.01,2013-04-29 22:05:00,
2013-04-29 18:10:00,70.9,54.0,29.94,North,355,5.0,10.0,55,0.00,,SKC,0.01,VWS V14.01,2013-04-29 22:10:00,
2013-04-29 18:15:00,70.0,53.6,29.94,North,1,4.0,10.0,56,0.00,,SKC,0.01,VWS V14.01,2013-04-29 22:15:00,
2013-04-29 18:20:00,69.5,54.1,29.94,North,4,5.0,12.0,58,0.00,,SKC,0.01,VWS V14.01,2013-04-29 22:20:00,
2013-04-29 18:25:00,69.8,54.4,29.95,West,262,4.0,12.0,58,0.00,,SKC,0.01,VWS V14.01,2013-04-29 22:25:00,
2013-04-29 18:30:00,70.2,54.3,29.95,NE,53,5.0,12.0,57,0.00,,SKC,0.01,VWS V14.01,2013-04-29 22:30:00,
2013-04-29 18:35:00,70.0,53.6,29.95,NW,324,3.0,12.0,56,0.00,,SKC,0.01,VWS V14.01,2013-04-29 22:35:00,
2013-04-29 18:41:00,69.4,53.5,29.95,NW,324,2.0,13.0,57,0.00,,SKC,0.01,VWS V14.01,2013-04-29 22:41:00,
2013-04-29 18:46:00,69.2,53.8,29.95,SW,229,3.0,13.0,58,0.00,,SKC,0.01,VWS V14.01,2013-04-29 22:46:00,
2013-04-29 18:51:00,69.3,54.4,29.95,WNW,297,3.0,13.0,59,0.00,,SKC,0.01,VWS V14.01,2013-04-29 22:51:00,
2013-04-29 19:00:00,68.8,53.9,29.95,NNW,338,4.0,13.0,59,0.00,,SKC,0.01,VWS V14.01,2013-04-29 23:00:00,
2013-04-29 19:30:00,66.3,53.3,29.95,NNW,338,4.0,12.0,63,0.00,,SKC,0.01,VWS V14.01,2013-04-29 23:30:00,
2013-04-29 20:00:00,64.7,53.1,29.96,NNW,338,2.0,7.0,66,0.00,,SKC,0.01,VWS V14.01,2013-04-30 00:00:00,
2013-04-29 20:30:00,63.0,53.1,29.98,NNW,338,1.0,6.0,70,0.00,,SKC,0.01,VWS V14.01,2013-04-30 00:30:00,
2013-04-29 21:00:00,62.1,53.7,29.98,SSW,202,0.0,1.0,74,0.00,,SKC,0.01,VWS V14.01,2013-04-30 01:00:00,
2013-04-29 21:30:00,61.6,53.6,30.00,SSW,202,0.0,1.0,75,0.00,,SKC,0.01,VWS V14.01,2013-04-30 01:30:00,
2013-04-29 22:00:00,61.5,53.9,30.00,SSW,202,0.0,0.0,76,0.00,,SKC,0.01,VWS V14.01,2013-04-30 02:00:00,
2013-04-29 22:30:00,61.1,54.9,30.01,SSW,202,0.0,1.0,80,0.00,,SKC,0.01,VWS V14.01,2013-04-30 02:30:00,
2013-04-29 23:00:00,59.7,56.8,30.01,SE,135,0.0,2.0,90,0.06,,SKC,0.07,VWS V14.01,2013-04-30 03:00:00,
2013-04-29 23:30:00,58.6,56.9,30.00,SE,135,0.0,1.0,94,0.10,,SKC,0.11,VWS V14.01,2013-04-30 03:30:00,